Terminal Aerodrome Forecast
Issued by NWS Albuquerque, NM

Home | Current Version | Previous Version | Text Only | Print | Product List | Glossary On
Versions: 1 2 3 4 5 6 7 8 9 10 11 12 13 14 15 16 17
000
FTUS45 KABQ 022330
TAFABQ
TAF
KABQ 022330Z 0300/0324 27007KT P6SM SCT050
     FM030300 26011KT P6SM VCSH SCT050 BKN090
     FM030600 36005KT P6SM BKN100
     FM032200 09011KT P6SM VCSH FEW040 SCT100=

USA.gov is the U.S. government's official web portal to all federal, state and local government web resources and services.